Airfield :
LOGIN :

Register | Disclaimer

   EN    FR    IT 

 










Legend :    VFR   Marginal VFR   IFR   Intensive IFR   Very Intensive IFR
Visi :
Ceiling :
>= 8 km
>= 3000ft
5 to 8 km
1000 to 3000 ft
1500m to 5 km
500 to 1000 ft
800 to 1500m
200 to 500 ft
< 800m
< 200 ft
Symbols :   Thunderstorms  Fog  Heavy snow  Heavy precipitations  Wind > 20 kt
SIGMETs :     Misc.  Thunderstorms  Icing  Turbulence  Mountain Waves  Volcanic Ashes






- Airport Elevation : 257 ft
- IATA code : MAN


EGCC - Manchester

CURRENT METAR :
  • 250020Z AUTO VRB01KT 9999 NCD 05/04 Q1023

EXPIRED METARs :
  • 242320Z AUTO VRB01KT 9999 NCD 07/05 Q1023 NOSIG
  • 242250Z AUTO 16002KT 9999 NCD 07/05 Q1023 NOSIG
  • 242220Z AUTO VRB01KT 9999 NCD 10/06 Q1023 NOSIG

TAF TAF EGCC
Valid from the 25 at 00:00 until the 26 at 06:00 UTC


242302Z 2500/2606 VRB03KT 9999 FEW045
PROB40 2502/2508 3000 BR MIFG
BECMG 2506/2509 9999 NSW
BECMG 2512/2515 25010KT
PROB30
TEMPO 2517/2521 8000 -RA BKN014
TEMPO 2521/2605 26015G25KT
TEMPO 2521/2601 8000 -RA BKN012
PROB40
TEMPO 2521/2601 4000 RADZ BKN009
TEMPO 2601/2606 6000 SHRA
BECMG 2604/2606 31008KT
ATIS : +44 161 499 2324



MET'MAP, your aeronautical weather chart ! - Copyright ORBIFLY December 2007 - Disclaimer

ORBIFLY MET'MAP TEAM :

Programming & Development : Alexandra Zaïnal
Original concept : Baudouin d'Aumeries
Technical & hardware support : Manuel Goepfert
Assistance : Marc-Olivier Méhu




SOURCES & CREDITS :

   NOAA